El Paso, Texas
Current Conditions -  °F | °C
As of 8:51 AM on Sunday 25 Jan 2015 (Local Time) from KELP Reporting Station
Broken Clouds Broken Clouds  
Wind Chill: 37°   Ceiling: 25000
Heat Index: 40°   Visibility: 10mi
Dew Point: 27°   Wind: 5mph
Humidity: 60%   Direction: 350°N
Pressure: 30.27"   Gusts: NA
Location:  31.76°N, 106.48°W
Report Text: KELP 251551Z 35004KT 10SM BKN250 BKN300 04/M03 A3027 RMK AO2 SLP236 T00441028
Loading
Personal Weather Stations






























Interactive Weather Map New forecast layout! Learn more

10-Day Weather Forecast

Advertisements
Track Severe Weather on mobile